createdAt,value
2023-02-06T00:01:32.752Z,3.61
2023-02-06T00:04:00.782Z,3.61
2023-02-06T00:06:28.758Z,3.56
2023-02-06T00:08:56.645Z,3.54
2023-02-06T00:11:24.907Z,3.50
2023-02-06T00:13:53.049Z,3.48
2023-02-06T00:16:23.434Z,3.49
2023-02-06T00:18:53.379Z,3.43
2023-02-06T00:21:22.556Z,3.47
2023-02-06T00:23:50.698Z,3.47
2023-02-06T00:26:21.785Z,3.46
2023-02-06T00:28:52.229Z,3.49
2023-02-06T00:31:21.246Z,3.47
2023-02-06T00:33:53.576Z,3.52
2023-02-06T00:36:22.575Z,3.49
2023-02-06T00:38:53.768Z,3.54
2023-02-06T00:41:22.579Z,3.57
2023-02-06T00:43:54.574Z,3.57
2023-02-06T00:46:25.998Z,3.49
2023-02-06T00:48:57.827Z,3.63
2023-02-06T00:51:27.124Z,3.58
2023-02-06T00:53:56.034Z,3.55
2023-02-06T00:56:23.883Z,3.53
2023-02-06T00:58:51.697Z,3.47
2023-02-06T01:01:19.557Z,3.48
2023-02-06T01:03:47.389Z,3.45
2023-02-06T01:06:16.865Z,3.49
2023-02-06T01:08:44.723Z,3.44
2023-02-06T01:11:13.580Z,3.43
2023-02-06T01:13:42.034Z,3.55
2023-02-06T01:16:10.838Z,3.54
2023-02-06T01:18:38.874Z,3.46
2023-02-06T01:21:09.898Z,3.39
2023-02-06T01:23:40.293Z,3.45
2023-02-06T01:26:08.824Z,3.42
2023-02-06T01:28:37.514Z,3.38
2023-02-06T01:31:11.384Z,3.44
2023-02-06T01:33:39.534Z,3.47
2023-02-06T01:36:08.078Z,3.46
2023-02-06T01:38:36.075Z,3.53
2023-02-06T01:41:06.573Z,3.40
2023-02-06T01:43:38.057Z,3.42
2023-02-06T01:46:06.323Z,3.39
2023-02-06T01:48:39.651Z,3.42
2023-02-06T01:51:11.438Z,3.34
2023-02-06T01:53:41.585Z,3.29
2023-02-06T01:56:11.819Z,3.25
2023-02-06T01:58:43.557Z,3.25
2023-02-06T02:01:12.645Z,3.35
2023-02-06T02:03:43.665Z,3.34
2023-02-06T02:06:13.973Z,3.29
2023-02-06T02:08:43.348Z,3.27
2023-02-06T02:11:18.308Z,3.32
2023-02-06T02:13:46.484Z,3.36
2023-02-06T02:16:20.824Z,3.38
2023-02-06T02:19:04.109Z,3.31
2023-02-06T02:22:07.612Z,3.36
2023-02-06T02:25:02.613Z,3.37
2023-02-06T02:27:45.730Z,3.34
2023-02-06T02:30:38.240Z,3.39
2023-02-06T02:33:26.931Z,3.35
2023-02-06T02:36:04.096Z,3.30
2023-02-06T02:38:44.089Z,3.27
2023-02-06T02:41:20.164Z,3.24
2023-02-06T02:43:54.952Z,3.23
2023-02-06T02:46:27.534Z,3.27
2023-02-06T02:49:02.132Z,3.25
2023-02-06T02:51:33.223Z,3.25
2023-02-06T02:54:00.986Z,3.30
2023-02-06T02:56:30.390Z,3.38
2023-02-06T02:59:01.423Z,3.29
2023-02-06T03:01:34.640Z,3.28
2023-02-06T03:04:09.096Z,3.27
2023-02-06T03:06:51.573Z,3.39
2023-02-06T03:09:29.551Z,3.28
2023-02-06T03:12:11.549Z,3.30
2023-02-06T03:14:45.217Z,3.39
2023-02-06T03:17:19.657Z,3.39
2023-02-06T03:19:53.792Z,3.36
2023-02-06T03:22:25.540Z,3.41
2023-02-06T03:24:55.048Z,3.32
2023-02-06T03:27:24.737Z,3.33
2023-02-06T03:29:55.323Z,3.42
2023-02-06T03:32:26.282Z,3.37
2023-02-06T03:34:59.014Z,3.34
2023-02-06T03:37:30.363Z,3.36
2023-02-06T03:40:01.619Z,3.31
2023-02-06T03:42:31.861Z,3.28
2023-02-06T03:45:07.299Z,3.24
2023-02-06T03:47:37.514Z,3.33
2023-02-06T03:50:08.135Z,3.34
2023-02-06T03:52:41.860Z,3.29
2023-02-06T03:55:14.121Z,3.29
2023-02-06T03:57:45.216Z,3.28
2023-02-06T04:00:14.259Z,3.24
2023-02-06T04:02:43.663Z,3.25
2023-02-06T04:05:11.408Z,3.27
2023-02-06T04:07:40.870Z,3.42
2023-02-06T04:10:09.087Z,3.26
2023-02-06T04:12:36.919Z,3.31
2023-02-06T04:15:05.515Z,3.22
2023-02-06T04:17:49.834Z,3.32
2023-02-06T04:20:21.625Z,3.26
2023-02-06T04:22:50.932Z,3.25
2023-02-06T04:25:18.857Z,3.28
2023-02-06T04:27:46.822Z,3.25
2023-02-06T04:30:15.678Z,3.26
2023-02-06T04:32:43.428Z,3.22
2023-02-06T04:35:11.646Z,3.23
2023-02-06T04:37:39.544Z,3.12
2023-02-06T04:40:09.473Z,3.09
2023-02-06T04:42:37.384Z,3.15
2023-02-06T04:45:05.635Z,3.18
2023-02-06T04:47:33.562Z,3.24
2023-02-06T04:50:01.451Z,3.16
2023-02-06T04:52:29.571Z,3.18
2023-02-06T04:54:57.319Z,3.19
2023-02-06T04:57:26.717Z,3.23
2023-02-06T04:59:54.498Z,3.22
2023-02-06T05:02:22.113Z,3.14
2023-02-06T05:04:49.854Z,3.22
2023-02-06T05:07:17.952Z,3.16
2023-02-06T05:09:46.722Z,3.19
2023-02-06T05:12:14.877Z,3.24
2023-02-06T05:14:43.928Z,3.24
2023-02-06T05:17:11.712Z,3.21
2023-02-06T05:19:39.581Z,3.17
2023-02-06T05:22:07.306Z,3.26
2023-02-06T05:24:35.238Z,3.23
2023-02-06T05:27:03.291Z,3.23
2023-02-06T05:29:31.002Z,3.20
2023-02-06T05:32:00.160Z,3.08
2023-02-06T05:34:28.108Z,3.25
2023-02-06T05:36:55.811Z,3.19
2023-02-06T05:39:23.593Z,3.11
2023-02-06T05:41:51.277Z,3.07
2023-02-06T05:44:18.978Z,3.08
2023-02-06T05:46:48.271Z,3.20
2023-02-06T05:49:18.020Z,3.25
2023-02-06T05:51:45.708Z,3.03
2023-02-06T05:54:16.911Z,3.06
2023-02-06T05:56:44.744Z,3.00
2023-02-06T05:59:12.804Z,2.96
2023-02-06T06:01:40.854Z,2.92
2023-02-06T06:04:08.846Z,2.93
2023-02-06T06:06:38.461Z,3.00
2023-02-06T06:09:06.310Z,2.91
2023-02-06T06:11:34.435Z,2.91
2023-02-06T06:14:02.224Z,2.90
2023-02-06T06:16:29.942Z,3.04
2023-02-06T06:18:57.809Z,2.95
2023-02-06T06:21:25.504Z,2.89
2023-02-06T06:23:55.226Z,2.92
2023-02-06T06:26:24.634Z,2.87
2023-02-06T06:28:52.539Z,2.82
2023-02-06T06:31:20.617Z,2.81
2023-02-06T06:33:48.587Z,2.82
2023-02-06T06:36:16.658Z,2.79
2023-02-06T06:38:44.295Z,2.82
2023-02-06T06:41:13.429Z,2.75
2023-02-06T06:43:42.498Z,2.78
2023-02-06T06:46:11.407Z,2.82
2023-02-06T06:48:41.606Z,2.77
2023-02-06T06:51:10.504Z,2.78
2023-02-06T06:53:40.109Z,2.73
2023-02-06T06:56:11.239Z,2.73
2023-02-06T06:58:41.189Z,2.79
2023-02-06T07:01:09.500Z,2.81
2023-02-06T07:03:37.777Z,2.88
2023-02-06T07:06:06.401Z,2.82
2023-02-06T07:08:35.884Z,2.95
2023-02-06T07:11:03.693Z,2.99
2023-02-06T07:13:31.484Z,2.92
2023-02-06T07:16:00.661Z,2.94
2023-02-06T07:18:28.730Z,2.89
2023-02-06T07:20:56.526Z,2.92
2023-02-06T07:23:24.310Z,2.95
2023-02-06T07:25:53.145Z,2.91
2023-02-06T07:28:20.867Z,2.91
2023-02-06T07:30:48.671Z,2.99
2023-02-06T07:33:17.901Z,2.93
2023-02-06T07:35:46.030Z,2.88
2023-02-06T07:38:13.747Z,2.96
2023-02-06T07:40:45.696Z,2.95
2023-02-06T07:43:14.372Z,2.91
2023-02-06T07:45:42.907Z,2.88
2023-02-06T07:48:11.206Z,2.86
2023-02-06T07:50:40.546Z,2.85
2023-02-06T07:53:08.810Z,2.87
2023-02-06T07:55:38.858Z,2.90
2023-02-06T07:58:06.760Z,2.91
2023-02-06T08:00:34.748Z,2.94
2023-02-06T08:03:02.664Z,2.91
2023-02-06T08:05:31.155Z,2.92
2023-02-06T08:08:00.626Z,3.01
2023-02-06T08:10:29.494Z,2.97
2023-02-06T08:12:57.672Z,3.00
2023-02-06T08:15:25.815Z,3.05
2023-02-06T08:17:53.799Z,3.06
2023-02-06T08:20:22.028Z,3.06
2023-02-06T08:22:49.949Z,3.06
2023-02-06T08:25:19.251Z,3.18
2023-02-06T08:27:48.402Z,3.11
2023-02-06T08:30:16.954Z,3.27
2023-02-06T08:32:45.151Z,3.20
2023-02-06T08:35:13.103Z,3.26
2023-02-06T08:37:41.714Z,3.30
2023-02-06T08:40:10.633Z,3.36
2023-02-06T08:42:39.760Z,3.38
2023-02-06T08:45:08.476Z,3.41
2023-02-06T08:47:36.171Z,3.37
2023-02-06T08:50:04.010Z,3.41
2023-02-06T08:52:31.874Z,3.44
2023-02-06T08:54:59.610Z,3.42
2023-02-06T08:57:27.254Z,3.37
2023-02-06T08:59:56.973Z,3.43
2023-02-06T09:02:24.876Z,3.41
2023-02-06T09:04:52.724Z,3.35
2023-02-06T09:07:21.651Z,3.41
2023-02-06T09:09:49.697Z,3.52
2023-02-06T09:12:17.905Z,3.52
2023-02-06T09:14:45.866Z,3.51
2023-02-06T09:17:15.214Z,3.57
2023-02-06T09:19:43.313Z,3.58
2023-02-06T09:22:11.333Z,3.70
2023-02-06T09:24:39.490Z,3.64
2023-02-06T09:27:07.436Z,3.71
2023-02-06T09:29:35.393Z,3.78
2023-02-06T09:32:03.260Z,3.79
2023-02-06T09:34:32.431Z,3.80
2023-02-06T09:37:03.185Z,3.92
2023-02-06T09:39:32.823Z,3.80
2023-02-06T09:42:07.042Z,3.87
2023-02-06T09:44:38.187Z,3.95
2023-02-06T09:47:18.330Z,3.97
2023-02-06T09:49:51.123Z,3.95
2023-02-06T09:52:31.658Z,3.88
2023-02-06T09:55:06.550Z,4.04
2023-02-06T09:57:42.460Z,3.95
2023-02-06T10:00:21.854Z,3.81
2023-02-06T10:03:07.910Z,3.90
2023-02-06T10:05:47.617Z,4.19
2023-02-06T10:08:22.728Z,4.11
2023-02-06T10:10:54.833Z,4.09
2023-02-06T10:13:27.196Z,4.10
2023-02-06T10:15:57.445Z,3.98
2023-02-06T10:18:30.613Z,3.89
2023-02-06T10:21:05.982Z,4.00
2023-02-06T10:23:38.292Z,3.93
2023-02-06T10:26:12.312Z,3.99
2023-02-06T10:28:41.497Z,4.01
2023-02-06T10:31:20.837Z,4.18
2023-02-06T10:33:55.936Z,4.14
2023-02-06T10:36:40.611Z,4.30
2023-02-06T10:39:22.579Z,4.21
2023-02-06T10:42:01.561Z,4.12
2023-02-06T10:44:36.095Z,4.03
2023-02-06T10:47:14.817Z,4.06
2023-02-06T10:49:48.153Z,4.32
2023-02-06T10:52:23.699Z,4.37
2023-02-06T10:54:54.804Z,4.38
2023-02-06T10:57:25.370Z,4.38
2023-02-06T10:59:58.747Z,4.41
2023-02-06T11:02:29.482Z,4.18
2023-02-06T11:05:04.492Z,4.15
2023-02-06T11:07:40.161Z,4.21
2023-02-06T11:10:09.536Z,4.15
2023-02-06T11:12:39.982Z,4.40
2023-02-06T11:15:17.555Z,4.66
2023-02-06T11:17:46.239Z,4.39
2023-02-06T11:20:21.826Z,4.31
2023-02-06T11:22:53.683Z,4.18
2023-02-06T11:25:26.826Z,4.21
2023-02-06T11:27:55.588Z,4.30
2023-02-06T11:30:31.409Z,4.50
2023-02-06T11:33:04.958Z,4.86
2023-02-06T11:35:38.302Z,4.91
2023-02-06T11:38:15.271Z,5.09
2023-02-06T11:40:43.103Z,5.25
2023-02-06T11:43:20.532Z,5.21
2023-02-06T11:45:52.303Z,5.20
2023-02-06T11:48:38.008Z,5.04
2023-02-06T11:51:07.464Z,4.76
2023-02-06T11:53:37.532Z,4.77
2023-02-06T11:56:15.320Z,4.63
2023-02-06T11:58:43.619Z,4.84
2023-02-06T12:01:19.914Z,4.96
2023-02-06T12:03:55.928Z,5.49
2023-02-06T12:06:31.270Z,5.37
2023-02-06T12:09:02.240Z,5.48
2023-02-06T12:11:35.794Z,5.31
2023-02-06T12:14:08.503Z,5.36
2023-02-06T12:16:40.694Z,5.15
2023-02-06T12:19:20.309Z,4.81
2023-02-06T12:21:50.936Z,4.83
2023-02-06T12:24:32.510Z,4.62
2023-02-06T12:27:03.382Z,4.57
2023-02-06T12:29:38.054Z,4.93
2023-02-06T12:32:14.961Z,5.14
2023-02-06T12:34:53.642Z,5.82
2023-02-06T12:37:31.449Z,6.31
2023-02-06T12:40:01.618Z,6.44
2023-02-06T12:42:38.346Z,6.07
2023-02-06T12:45:16.719Z,6.12
2023-02-06T12:47:51.313Z,5.60
2023-02-06T12:50:24.281Z,5.63
2023-02-06T12:52:57.083Z,5.81
2023-02-06T12:55:30.623Z,5.95
2023-02-06T12:57:59.386Z,5.64
2023-02-06T13:00:44.969Z,5.97
2023-02-06T13:03:29.790Z,6.46
2023-02-06T13:06:11.227Z,6.54
2023-02-06T13:08:47.550Z,7.14
2023-02-06T13:11:28.712Z,6.67
2023-02-06T13:14:06.614Z,5.82
2023-02-06T13:16:44.766Z,5.52
2023-02-06T13:19:32.343Z,5.15
2023-02-06T13:22:23.066Z,5.03
2023-02-06T13:24:52.183Z,5.44
2023-02-06T13:27:25.160Z,5.84
2023-02-06T13:29:54.648Z,6.12
2023-02-06T13:32:42.291Z,6.35
2023-02-06T13:35:22.385Z,6.12
2023-02-06T13:37:51.688Z,5.91
2023-02-06T13:40:30.521Z,5.74
2023-02-06T13:43:04.238Z,5.99
2023-02-06T13:45:36.009Z,5.69
2023-02-06T13:48:29.501Z,5.57
2023-02-06T13:51:09.780Z,5.27
2023-02-06T13:54:23.485Z,5.32
2023-02-06T13:57:19.237Z,5.38
2023-02-06T13:59:51.830Z,5.22
2023-02-06T14:02:27.501Z,5.41
2023-02-06T14:04:56.180Z,5.29
2023-02-06T14:07:56.798Z,5.38
2023-02-06T14:10:55.912Z,5.31
2023-02-06T14:13:38.311Z,5.41
2023-02-06T14:16:27.703Z,5.49
2023-02-06T14:19:02.317Z,5.38
2023-02-06T14:21:43.818Z,5.23
2023-02-06T14:24:29.073Z,5.38
2023-02-06T14:27:11.143Z,5.48
2023-02-06T14:29:47.066Z,5.64
2023-02-06T14:32:33.405Z,5.58
2023-02-06T14:35:20.446Z,5.42
2023-02-06T14:38:04.889Z,5.59
2023-02-06T14:40:39.638Z,5.46
2023-02-06T14:43:12.108Z,5.39
2023-02-06T14:45:43.404Z,5.55
2023-02-06T14:48:22.042Z,5.24
2023-02-06T14:50:53.925Z,5.21
2023-02-06T14:53:26.042Z,5.48
2023-02-06T14:56:06.268Z,5.20
2023-02-06T14:58:34.108Z,5.30
2023-02-06T15:01:14.848Z,5.17
2023-02-06T15:03:45.521Z,5.32
2023-02-06T15:06:16.723Z,5.16
2023-02-06T15:08:49.954Z,5.30
2023-02-06T15:11:24.334Z,5.10
2023-02-06T15:13:54.272Z,5.32
2023-02-06T15:16:22.679Z,5.22
2023-02-06T15:18:51.927Z,5.07
2023-02-06T15:21:22.045Z,5.36
2023-02-06T15:24:00.818Z,5.15
2023-02-06T15:26:35.542Z,5.00
2023-02-06T15:29:06.838Z,4.89
2023-02-06T15:31:35.650Z,4.88
2023-02-06T15:34:05.713Z,4.77
2023-02-06T15:36:37.909Z,4.64
2023-02-06T15:39:09.563Z,4.73
2023-02-06T15:41:38.864Z,4.70
2023-02-06T15:44:13.277Z,4.51
2023-02-06T15:46:41.683Z,4.59
2023-02-06T15:49:19.084Z,4.28
2023-02-06T15:51:55.154Z,4.19
2023-02-06T15:54:25.202Z,4.33
2023-02-06T15:56:57.402Z,4.24
2023-02-06T15:59:27.617Z,4.30
2023-02-06T16:01:58.660Z,4.33
2023-02-06T16:04:31.395Z,4.18
2023-02-06T16:07:03.344Z,4.12
2023-02-06T16:09:31.952Z,4.05
2023-02-06T16:12:00.127Z,4.08
2023-02-06T16:14:35.325Z,3.93
2023-02-06T16:17:07.171Z,3.83
2023-02-06T16:19:48.377Z,3.78
2023-02-06T16:22:25.393Z,3.81
2023-02-06T16:24:55.065Z,3.90
2023-02-06T16:27:25.776Z,3.86
2023-02-06T16:29:57.480Z,4.05
2023-02-06T16:32:29.345Z,4.13
2023-02-06T16:35:01.357Z,4.34
2023-02-06T16:37:32.008Z,4.37
2023-02-06T16:39:59.900Z,4.42
2023-02-06T16:42:34.295Z,4.36
2023-02-06T16:45:10.180Z,4.21
2023-02-06T16:47:38.148Z,4.49
2023-02-06T16:50:10.383Z,4.47
2023-02-06T16:52:41.646Z,4.40
2023-02-06T16:55:17.559Z,4.29
2023-02-06T16:57:46.897Z,4.33
2023-02-06T17:00:19.538Z,4.43
2023-02-06T17:02:47.681Z,4.49
2023-02-06T17:05:17.793Z,4.33
2023-02-06T17:07:46.431Z,4.21
2023-02-06T17:10:14.935Z,4.02
2023-02-06T17:12:45.077Z,3.92
2023-02-06T17:15:14.042Z,3.80
2023-02-06T17:17:42.251Z,3.78
2023-02-06T17:20:31.798Z,3.74
2023-02-06T17:23:00.548Z,3.70
2023-02-06T17:25:28.819Z,3.63
2023-02-06T17:27:56.744Z,3.59
2023-02-06T17:30:25.751Z,3.59
2023-02-06T17:32:53.618Z,3.59
2023-02-06T17:35:21.824Z,3.72
2023-02-06T17:37:51.607Z,3.73
2023-02-06T17:40:23.036Z,3.78
2023-02-06T17:42:51.136Z,3.78
2023-02-06T17:45:19.038Z,3.85
2023-02-06T17:47:47.811Z,3.99
2023-02-06T17:50:18.300Z,3.89
2023-02-06T17:52:46.059Z,3.91
2023-02-06T17:55:15.972Z,3.97
2023-02-06T17:57:43.724Z,4.03
2023-02-06T18:00:15.980Z,3.95
2023-02-06T18:02:43.856Z,3.85
2023-02-06T18:05:12.945Z,3.93
2023-02-06T18:07:41.186Z,3.70
2023-02-06T18:10:09.962Z,3.57
2023-02-06T18:12:39.711Z,3.54
2023-02-06T18:15:08.325Z,3.78
2023-02-06T18:17:36.054Z,3.84
2023-02-06T18:20:04.448Z,3.77
2023-02-06T18:22:39.929Z,3.83
2023-02-06T18:25:09.315Z,3.90
2023-02-06T18:27:37.303Z,3.85
2023-02-06T18:30:08.716Z,3.75
2023-02-06T18:32:38.719Z,3.86
2023-02-06T18:35:07.914Z,3.90
2023-02-06T18:37:36.285Z,3.93
2023-02-06T18:40:04.445Z,3.99
2023-02-06T18:42:49.774Z,3.99
2023-02-06T18:45:19.779Z,3.73
2023-02-06T18:47:47.692Z,3.70
2023-02-06T18:50:20.303Z,3.57
2023-02-06T18:52:48.606Z,3.51
2023-02-06T18:55:17.482Z,3.52
2023-02-06T18:57:45.591Z,3.33
2023-02-06T19:00:16.539Z,3.16
2023-02-06T19:02:46.354Z,3.24
2023-02-06T19:05:16.409Z,3.25
2023-02-06T19:07:44.525Z,3.17
2023-02-06T19:10:16.414Z,3.04
2023-02-06T19:12:45.021Z,2.92
2023-02-06T19:15:14.999Z,3.02
2023-02-06T19:17:43.340Z,3.00
2023-02-06T19:20:14.013Z,3.05
2023-02-06T19:22:42.007Z,2.89
2023-02-06T19:25:14.340Z,2.97
2023-02-06T19:27:43.832Z,2.92
2023-02-06T19:30:14.182Z,2.77
2023-02-06T19:32:43.509Z,2.84
2023-02-06T19:35:12.902Z,2.81
2023-02-06T19:37:41.550Z,2.72
2023-02-06T19:40:10.143Z,2.68
2023-02-06T19:42:39.324Z,2.86
2023-02-06T19:45:07.673Z,2.72
2023-02-06T19:47:36.299Z,2.70
2023-02-06T19:50:04.962Z,2.48
2023-02-06T19:52:35.346Z,2.37
2023-02-06T19:55:03.821Z,2.44
2023-02-06T19:57:31.682Z,2.60
2023-02-06T19:59:59.653Z,2.48
2023-02-06T20:02:28.097Z,2.35
2023-02-06T20:04:55.925Z,2.23
2023-02-06T20:07:23.736Z,2.25
2023-02-06T20:09:55.398Z,2.31
2023-02-06T20:12:23.174Z,2.24
2023-02-06T20:14:51.294Z,2.13
2023-02-06T20:17:22.639Z,2.17
2023-02-06T20:19:50.587Z,2.18
2023-02-06T20:22:19.997Z,2.26
2023-02-06T20:24:48.364Z,2.24
2023-02-06T20:27:17.745Z,2.15
2023-02-06T20:29:46.597Z,2.02
2023-02-06T20:32:16.641Z,2.14
2023-02-06T20:34:47.446Z,2.21
2023-02-06T20:37:18.013Z,2.15
2023-02-06T20:39:46.856Z,1.86
2023-02-06T20:42:15.717Z,1.92
2023-02-06T20:44:46.031Z,1.81
2023-02-06T20:47:13.983Z,1.84
2023-02-06T20:49:42.765Z,1.87
2023-02-06T20:52:10.801Z,1.89
2023-02-06T20:54:38.773Z,2.00
2023-02-06T20:57:06.618Z,1.88
2023-02-06T20:59:34.641Z,1.89
2023-02-06T21:02:03.890Z,2.15
2023-02-06T21:04:33.821Z,1.85
2023-02-06T21:07:01.678Z,1.83
2023-02-06T21:09:30.269Z,1.92
2023-02-06T21:11:58.184Z,1.77
2023-02-06T21:14:28.054Z,1.75
2023-02-06T21:16:55.872Z,1.66
2023-02-06T21:19:27.803Z,1.67
2023-02-06T21:21:56.807Z,1.54
2023-02-06T21:24:25.304Z,1.44
2023-02-06T21:26:53.588Z,1.30
2023-02-06T21:29:22.969Z,1.29
2023-02-06T21:31:55.742Z,1.20
2023-02-06T21:34:30.114Z,1.14
2023-02-06T21:36:58.134Z,1.11
2023-02-06T21:39:28.721Z,1.11
2023-02-06T21:41:57.532Z,1.25
2023-02-06T21:44:26.364Z,1.11
2023-02-06T21:46:55.881Z,1.17
2023-02-06T21:49:25.038Z,1.39
2023-02-06T21:51:56.087Z,1.16
2023-02-06T21:54:24.606Z,1.07
2023-02-06T21:56:52.860Z,0.99
2023-02-06T21:59:20.935Z,1.01
2023-02-06T22:01:48.916Z,0.89
2023-02-06T22:04:16.770Z,0.87
2023-02-06T22:06:44.625Z,0.87
2023-02-06T22:09:18.725Z,0.83
2023-02-06T22:11:46.883Z,0.89
2023-02-06T22:14:17.836Z,0.96
2023-02-06T22:16:47.073Z,1.09
2023-02-06T22:19:15.885Z,1.14
2023-02-06T22:21:43.937Z,1.23
2023-02-06T22:24:13.769Z,1.28
2023-02-06T22:26:42.768Z,1.21
2023-02-06T22:29:12.982Z,1.26
2023-02-06T22:31:43.069Z,1.24
2023-02-06T22:34:14.844Z,1.26
2023-02-06T22:36:43.888Z,1.19
2023-02-06T22:39:14.288Z,0.94
2023-02-06T22:41:43.672Z,0.92
2023-02-06T22:44:16.172Z,0.88
2023-02-06T22:46:45.337Z,0.93
2023-02-06T22:49:13.459Z,1.00
2023-02-06T22:51:57.139Z,0.89
2023-02-06T22:54:30.071Z,0.81
2023-02-06T22:56:58.121Z,0.82
2023-02-06T22:59:26.715Z,0.77
2023-02-06T23:01:58.836Z,0.82
2023-02-06T23:04:29.376Z,0.82
2023-02-06T23:06:57.991Z,0.87
2023-02-06T23:09:27.836Z,0.82
2023-02-06T23:11:58.892Z,0.93
2023-02-06T23:14:28.344Z,1.21
2023-02-06T23:16:56.282Z,1.11
2023-02-06T23:19:24.874Z,1.12
2023-02-06T23:21:52.783Z,1.08
2023-02-06T23:24:21.651Z,1.08
2023-02-06T23:26:51.366Z,1.29
2023-02-06T23:29:22.116Z,1.09
2023-02-06T23:31:50.432Z,1.08
2023-02-06T23:34:19.605Z,1.00
2023-02-06T23:36:48.726Z,0.94
2023-02-06T23:39:17.036Z,1.21
2023-02-06T23:41:44.888Z,1.11
2023-02-06T23:44:12.621Z,1.06
2023-02-06T23:46:42.542Z,1.11
2023-02-06T23:49:11.052Z,0.94
2023-02-06T23:51:39.229Z,0.91
2023-02-06T23:54:08.433Z,0.99
2023-02-06T23:56:36.349Z,0.93
2023-02-06T23:59:05.705Z,0.86
